sensor_id;sensor_type;location;lat;lon;timestamp;temperature;humidity
20041;DHT22;10181;48.072;9.884;2022-07-29T00:00:41;16.70;99.90
20041;DHT22;10181;48.072;9.884;2022-07-29T00:03:13;16.70;99.90
20041;DHT22;10181;48.072;9.884;2022-07-29T00:05:40;16.70;99.90
20041;DHT22;10181;48.072;9.884;2022-07-29T00:08:06;16.60;99.90
20041;DHT22;10181;48.072;9.884;2022-07-29T00:10:32;16.60;99.90
20041;DHT22;10181;48.072;9.884;2022-07-29T00:12:58;16.60;99.90
20041;DHT22;10181;48.072;9.884;2022-07-29T00:15:24;16.60;99.90
20041;DHT22;10181;48.072;9.884;2022-07-29T00:17:49;16.60;99.90
20041;DHT22;10181;48.072;9.884;2022-07-29T00:20:15;16.60;99.90
20041;DHT22;10181;48.072;9.884;2022-07-29T00:22:41;16.60;99.90
20041;DHT22;10181;48.072;9.884;2022-07-29T00:25:06;16.60;99.90
20041;DHT22;10181;48.072;9.884;2022-07-29T00:27:34;16.60;99.90
20041;DHT22;10181;48.072;9.884;2022-07-29T00:30:00;16.60;99.90
20041;DHT22;10181;48.072;9.884;2022-07-29T00:32:26;16.70;99.90
20041;DHT22;10181;48.072;9.884;2022-07-29T00:34:52;16.70;99.90
20041;DHT22;10181;48.072;9.884;2022-07-29T00:37:36;16.60;99.90
20041;DHT22;10181;48.072;9.884;2022-07-29T00:40:02;16.60;99.90
20041;DHT22;10181;48.072;9.884;2022-07-29T00:42:28;16.60;99.90
20041;DHT22;10181;48.072;9.884;2022-07-29T00:44:54;16.60;99.90
20041;DHT22;10181;48.072;9.884;2022-07-29T00:47:19;16.60;99.90
20041;DHT22;10181;48.072;9.884;2022-07-29T00:49:45;16.60;99.90
20041;DHT22;10181;48.072;9.884;2022-07-29T00:52:11;16.50;99.90
20041;DHT22;10181;48.072;9.884;2022-07-29T00:54:38;16.50;99.90
20041;DHT22;10181;48.072;9.884;2022-07-29T00:57:06;16.50;99.90
20041;DHT22;10181;48.072;9.884;2022-07-29T00:59:32;16.50;99.90
20041;DHT22;10181;48.072;9.884;2022-07-29T01:01:58;16.40;99.90
20041;DHT22;10181;48.072;9.884;2022-07-29T01:04:24;16.30;99.90
20041;DHT22;10181;48.072;9.884;2022-07-29T01:06:50;16.20;99.90
20041;DHT22;10181;48.072;9.884;2022-07-29T01:09:17;16.20;99.90
20041;DHT22;10181;48.072;9.884;2022-07-29T01:11:45;16.10;99.90
20041;DHT22;10181;48.072;9.884;2022-07-29T01:14:14;16.10;99.90
20041;DHT22;10181;48.072;9.884;2022-07-29T01:16:47;16.00;99.90
20041;DHT22;10181;48.072;9.884;2022-07-29T01:19:36;15.90;99.90
20041;DHT22;10181;48.072;9.884;2022-07-29T01:30:58;15.70;99.90
20041;DHT22;10181;48.072;9.884;2022-07-29T01:33:25;15.60;99.90
20041;DHT22;10181;48.072;9.884;2022-07-29T01:36:23;15.60;99.90
20041;DHT22;10181;48.072;9.884;2022-07-29T01:39:12;15.60;99.90
20041;DHT22;10181;48.072;9.884;2022-07-29T01:42:30;15.50;99.90
20041;DHT22;10181;48.072;9.884;2022-07-29T01:44:34;15.50;99.90
20041;DHT22;10181;48.072;9.884;2022-07-29T01:47:08;15.40;99.90
20041;DHT22;10181;48.072;9.884;2022-07-29T01:49:41;15.30;99.90
20041;DHT22;10181;48.072;9.884;2022-07-29T01:52:13;15.30;99.90
20041;DHT22;10181;48.072;9.884;2022-07-29T01:54:47;15.30;99.90
20041;DHT22;10181;48.072;9.884;2022-07-29T01:57:15;15.20;99.90
20041;DHT22;10181;48.072;9.884;2022-07-29T01:59:46;15.20;99.90
20041;DHT22;10181;48.072;9.884;2022-07-29T02:02:13;15.20;99.90
20041;DHT22;10181;48.072;9.884;2022-07-29T02:04:41;15.20;99.90
20041;DHT22;10181;48.072;9.884;2022-07-29T02:07:10;15.10;99.90
20041;DHT22;10181;48.072;9.884;2022-07-29T02:09:37;15.10;99.90
20041;DHT22;10181;48.072;9.884;2022-07-29T02:12:06;15.10;99.90
20041;DHT22;10181;48.072;9.884;2022-07-29T02:14:37;15.00;99.90
20041;DHT22;10181;48.072;9.884;2022-07-29T02:17:03;14.90;99.90
20041;DHT22;10181;48.072;9.884;2022-07-29T02:19:31;14.90;99.90
20041;DHT22;10181;48.072;9.884;2022-07-29T02:21:59;14.80;99.90
20041;DHT22;10181;48.072;9.884;2022-07-29T02:24:25;14.70;99.90
20041;DHT22;10181;48.072;9.884;2022-07-29T02:26:54;14.60;99.90
20041;DHT22;10181;48.072;9.884;2022-07-29T02:29:23;14.60;99.90
20041;DHT22;10181;48.072;9.884;2022-07-29T02:31:50;14.60;99.90
20041;DHT22;10181;48.072;9.884;2022-07-29T02:34:18;14.60;99.90
20041;DHT22;10181;48.072;9.884;2022-07-29T02:36:45;14.60;99.90
20041;DHT22;10181;48.072;9.884;2022-07-29T02:39:12;14.60;99.90
20041;DHT22;10181;48.072;9.884;2022-07-29T02:41:48;14.60;99.90
20041;DHT22;10181;48.072;9.884;2022-07-29T02:44:20;14.60;99.90
20041;DHT22;10181;48.072;9.884;2022-07-29T02:47:02;14.60;99.90
20041;DHT22;10181;48.072;9.884;2022-07-29T02:49:55;14.60;99.90
20041;DHT22;10181;48.072;9.884;2022-07-29T02:57:54;14.60;99.90
20041;DHT22;10181;48.072;9.884;2022-07-29T03:00:26;14.50;99.90
20041;DHT22;10181;48.072;9.884;2022-07-29T03:02:53;14.50;99.90
20041;DHT22;10181;48.072;9.884;2022-07-29T03:05:21;14.50;99.90
20041;DHT22;10181;48.072;9.884;2022-07-29T03:07:53;14.50;99.90
20041;DHT22;10181;48.072;9.884;2022-07-29T03:10:20;14.40;99.90
20041;DHT22;10181;48.072;9.884;2022-07-29T03:12:47;14.40;99.90
20041;DHT22;10181;48.072;9.884;2022-07-29T03:15:13;14.40;99.90
20041;DHT22;10181;48.072;9.884;2022-07-29T03:17:39;14.40;99.90
20041;DHT22;10181;48.072;9.884;2022-07-29T03:20:08;14.40;99.90
20041;DHT22;10181;48.072;9.884;2022-07-29T03:22:42;14.40;99.90
20041;DHT22;10181;48.072;9.884;2022-07-29T03:25:10;14.40;99.90
20041;DHT22;10181;48.072;9.884;2022-07-29T03:27:36;14.40;99.90
20041;DHT22;10181;48.072;9.884;2022-07-29T03:30:03;14.50;99.90
20041;DHT22;10181;48.072;9.884;2022-07-29T03:32:29;14.40;99.90
20041;DHT22;10181;48.072;9.884;2022-07-29T03:34:54;14.30;99.90
20041;DHT22;10181;48.072;9.884;2022-07-29T03:37:20;14.30;99.90
20041;DHT22;10181;48.072;9.884;2022-07-29T03:39:46;14.30;99.90
20041;DHT22;10181;48.072;9.884;2022-07-29T03:42:15;14.20;99.90
20041;DHT22;10181;48.072;9.884;2022-07-29T03:44:44;14.30;99.90
20041;DHT22;10181;48.072;9.884;2022-07-29T03:47:11;14.30;99.90
20041;DHT22;10181;48.072;9.884;2022-07-29T03:49:39;14.30;99.90
20041;DHT22;10181;48.072;9.884;2022-07-29T03:52:05;14.20;99.90
20041;DHT22;10181;48.072;9.884;2022-07-29T03:54:31;14.20;99.90
20041;DHT22;10181;48.072;9.884;2022-07-29T03:56:59;14.30;99.90
20041;DHT22;10181;48.072;9.884;2022-07-29T03:59:27;14.30;99.90
20041;DHT22;10181;48.072;9.884;2022-07-29T04:01:53;14.40;99.90
20041;DHT22;10181;48.072;9.884;2022-07-29T04:04:21;14.40;99.90
20041;DHT22;10181;48.072;9.884;2022-07-29T04:06:47;14.40;99.90
20041;DHT22;10181;48.072;9.884;2022-07-29T04:09:13;14.50;99.90
20041;DHT22;10181;48.072;9.884;2022-07-29T04:11:40;14.40;99.90
20041;DHT22;10181;48.072;9.884;2022-07-29T04:14:06;14.50;99.90
20041;DHT22;10181;48.072;9.884;2022-07-29T04:16:32;14.50;99.90
20041;DHT22;10181;48.072;9.884;2022-07-29T04:18:58;14.50;99.90
20041;DHT22;10181;48.072;9.884;2022-07-29T04:21:24;14.50;99.90
20041;DHT22;10181;48.072;9.884;2022-07-29T04:23:50;14.50;99.90
20041;DHT22;10181;48.072;9.884;2022-07-29T04:26:17;14.60;99.90
20041;DHT22;10181;48.072;9.884;2022-07-29T04:28:42;14.60;99.90
20041;DHT22;10181;48.072;9.884;2022-07-29T04:31:09;14.60;99.90
20041;DHT22;10181;48.072;9.884;2022-07-29T04:33:34;14.70;99.90
20041;DHT22;10181;48.072;9.884;2022-07-29T04:36:00;14.70;99.90
20041;DHT22;10181;48.072;9.884;2022-07-29T04:38:26;14.70;99.90
20041;DHT22;10181;48.072;9.884;2022-07-29T04:40:51;14.80;99.90
20041;DHT22;10181;48.072;9.884;2022-07-29T04:43:17;14.80;99.90
20041;DHT22;10181;48.072;9.884;2022-07-29T04:45:42;14.90;99.90
20041;DHT22;10181;48.072;9.884;2022-07-29T04:48:08;14.90;99.90
20041;DHT22;10181;48.072;9.884;2022-07-29T04:50:34;15.00;99.90
20041;DHT22;10181;48.072;9.884;2022-07-29T04:53:00;15.10;99.90
20041;DHT22;10181;48.072;9.884;2022-07-29T04:55:26;15.20;99.90
20041;DHT22;10181;48.072;9.884;2022-07-29T04:57:51;15.20;99.90
20041;DHT22;10181;48.072;9.884;2022-07-29T05:00:17;15.30;99.90
20041;DHT22;10181;48.072;9.884;2022-07-29T05:02:43;15.40;99.90
20041;DHT22;10181;48.072;9.884;2022-07-29T05:05:08;15.50;99.90
20041;DHT22;10181;48.072;9.884;2022-07-29T05:07:34;15.50;99.90
20041;DHT22;10181;48.072;9.884;2022-07-29T05:10:00;15.60;99.90
20041;DHT22;10181;48.072;9.884;2022-07-29T05:12:25;15.70;99.90
20041;DHT22;10181;48.072;9.884;2022-07-29T05:14:51;15.90;99.90
20041;DHT22;10181;48.072;9.884;2022-07-29T05:17:17;16.00;99.90
20041;DHT22;10181;48.072;9.884;2022-07-29T05:19:43;16.10;99.90
20041;DHT22;10181;48.072;9.884;2022-07-29T05:22:08;16.20;99.90
20041;DHT22;10181;48.072;9.884;2022-07-29T05:24:34;16.30;99.90
20041;DHT22;10181;48.072;9.884;2022-07-29T05:27:00;16.40;99.90
20041;DHT22;10181;48.072;9.884;2022-07-29T05:29:26;16.50;99.90
20041;DHT22;10181;48.072;9.884;2022-07-29T05:31:51;16.50;99.90
20041;DHT22;10181;48.072;9.884;2022-07-29T05:34:19;16.60;99.90
20041;DHT22;10181;48.072;9.884;2022-07-29T05:36:45;16.70;99.90
20041;DHT22;10181;48.072;9.884;2022-07-29T05:39:11;16.70;99.90
20041;DHT22;10181;48.072;9.884;2022-07-29T05:41:38;16.80;99.90
20041;DHT22;10181;48.072;9.884;2022-07-29T05:44:04;16.90;99.90
20041;DHT22;10181;48.072;9.884;2022-07-29T05:46:30;16.80;99.90
20041;DHT22;10181;48.072;9.884;2022-07-29T05:48:55;16.80;99.90
20041;DHT22;10181;48.072;9.884;2022-07-29T05:51:21;16.70;99.90
20041;DHT22;10181;48.072;9.884;2022-07-29T05:53:47;16.70;99.90
20041;DHT22;10181;48.072;9.884;2022-07-29T05:56:13;16.70;99.90
20041;DHT22;10181;48.072;9.884;2022-07-29T05:58:38;16.80;99.90
20041;DHT22;10181;48.072;9.884;2022-07-29T06:01:04;16.80;99.90
20041;DHT22;10181;48.072;9.884;2022-07-29T06:03:29;16.80;99.90
20041;DHT22;10181;48.072;9.884;2022-07-29T06:05:55;16.70;99.90
20041;DHT22;10181;48.072;9.884;2022-07-29T06:08:21;16.80;99.90
20041;DHT22;10181;48.072;9.884;2022-07-29T06:10:47;16.80;99.90
20041;DHT22;10181;48.072;9.884;2022-07-29T06:13:13;16.80;99.90
20041;DHT22;10181;48.072;9.884;2022-07-29T06:15:41;16.80;99.90
20041;DHT22;10181;48.072;9.884;2022-07-29T06:18:07;16.90;99.90
20041;DHT22;10181;48.072;9.884;2022-07-29T06:20:34;16.80;99.90
20041;DHT22;10181;48.072;9.884;2022-07-29T06:23:00;16.90;99.90
20041;DHT22;10181;48.072;9.884;2022-07-29T06:25:27;16.90;99.90
20041;DHT22;10181;48.072;9.884;2022-07-29T06:27:56;16.90;99.90
20041;DHT22;10181;48.072;9.884;2022-07-29T06:30:22;17.00;99.90
20041;DHT22;10181;48.072;9.884;2022-07-29T06:32:48;17.00;99.90
20041;DHT22;10181;48.072;9.884;2022-07-29T06:35:14;17.00;99.90
20041;DHT22;10181;48.072;9.884;2022-07-29T06:37:40;17.10;99.90
20041;DHT22;10181;48.072;9.884;2022-07-29T06:40:06;17.10;99.90
20041;DHT22;10181;48.072;9.884;2022-07-29T06:42:50;17.10;99.90
20041;DHT22;10181;48.072;9.884;2022-07-29T06:45:16;17.10;99.90
20041;DHT22;10181;48.072;9.884;2022-07-29T06:47:42;17.10;99.90
20041;DHT22;10181;48.072;9.884;2022-07-29T06:50:08;17.10;99.90
20041;DHT22;10181;48.072;9.884;2022-07-29T06:52:37;17.10;99.90
20041;DHT22;10181;48.072;9.884;2022-07-29T06:55:03;17.10;99.90
20041;DHT22;10181;48.072;9.884;2022-07-29T06:57:28;17.20;99.90
20041;DHT22;10181;48.072;9.884;2022-07-29T06:59:56;17.20;99.90
20041;DHT22;10181;48.072;9.884;2022-07-29T07:02:22;17.30;99.90
20041;DHT22;10181;48.072;9.884;2022-07-29T07:04:48;17.30;99.90
20041;DHT22;10181;48.072;9.884;2022-07-29T07:07:13;17.40;99.90
20041;DHT22;10181;48.072;9.884;2022-07-29T07:09:39;17.40;99.90
20041;DHT22;10181;48.072;9.884;2022-07-29T07:12:05;17.50;99.90
20041;DHT22;10181;48.072;9.884;2022-07-29T07:14:31;17.60;99.90
20041;DHT22;10181;48.072;9.884;2022-07-29T07:16:57;17.70;99.90
20041;DHT22;10181;48.072;9.884;2022-07-29T07:19:22;17.80;99.90
20041;DHT22;10181;48.072;9.884;2022-07-29T07:21:48;17.90;99.90
20041;DHT22;10181;48.072;9.884;2022-07-29T07:24:14;18.10;99.90
20041;DHT22;10181;48.072;9.884;2022-07-29T07:26:39;18.20;99.90
20041;DHT22;10181;48.072;9.884;2022-07-29T07:29:05;18.30;99.90
20041;DHT22;10181;48.072;9.884;2022-07-29T07:31:31;18.30;99.90
20041;DHT22;10181;48.072;9.884;2022-07-29T07:33:57;18.40;99.90
20041;DHT22;10181;48.072;9.884;2022-07-29T07:36:23;18.40;99.90
20041;DHT22;10181;48.072;9.884;2022-07-29T07:38:48;18.40;99.90
20041;DHT22;10181;48.072;9.884;2022-07-29T07:41:14;18.50;99.90
20041;DHT22;10181;48.072;9.884;2022-07-29T07:43:40;18.60;99.90
20041;DHT22;10181;48.072;9.884;2022-07-29T07:46:05;18.70;99.90
20041;DHT22;10181;48.072;9.884;2022-07-29T07:48:31;18.70;99.90
20041;DHT22;10181;48.072;9.884;2022-07-29T07:50:57;18.80;99.90
20041;DHT22;10181;48.072;9.884;2022-07-29T07:53:22;18.90;99.90
20041;DHT22;10181;48.072;9.884;2022-07-29T07:55:48;19.00;99.90
20041;DHT22;10181;48.072;9.884;2022-07-29T07:58:14;19.00;99.90
20041;DHT22;10181;48.072;9.884;2022-07-29T08:00:39;19.10;99.90
20041;DHT22;10181;48.072;9.884;2022-07-29T08:03:05;19.10;99.90
20041;DHT22;10181;48.072;9.884;2022-07-29T08:05:31;19.20;99.90
20041;DHT22;10181;48.072;9.884;2022-07-29T08:07:57;19.40;99.90
20041;DHT22;10181;48.072;9.884;2022-07-29T08:10:23;19.50;99.90
20041;DHT22;10181;48.072;9.884;2022-07-29T08:13:25;19.50;99.90
20041;DHT22;10181;48.072;9.884;2022-07-29T08:15:56;19.70;99.90
20041;DHT22;10181;48.072;9.884;2022-07-29T08:18:30;19.70;99.90
20041;DHT22;10181;48.072;9.884;2022-07-29T08:20:57;19.80;99.90
20041;DHT22;10181;48.072;9.884;2022-07-29T08:23:23;19.80;99.90
20041;DHT22;10181;48.072;9.884;2022-07-29T08:25:49;19.90;99.90
20041;DHT22;10181;48.072;9.884;2022-07-29T08:28:15;20.00;99.90
20041;DHT22;10181;48.072;9.884;2022-07-29T08:30:41;20.10;99.90
20041;DHT22;10181;48.072;9.884;2022-07-29T08:33:06;20.10;99.90
20041;DHT22;10181;48.072;9.884;2022-07-29T08:35:32;20.20;99.90
20041;DHT22;10181;48.072;9.884;2022-07-29T08:37:58;20.20;99.90
20041;DHT22;10181;48.072;9.884;2022-07-29T08:40:23;20.30;99.90
20041;DHT22;10181;48.072;9.884;2022-07-29T08:42:50;20.40;99.90
20041;DHT22;10181;48.072;9.884;2022-07-29T08:45:16;20.40;99.90
20041;DHT22;10181;48.072;9.884;2022-07-29T08:47:44;20.50;99.90
20041;DHT22;10181;48.072;9.884;2022-07-29T08:50:12;20.60;99.90
20041;DHT22;10181;48.072;9.884;2022-07-29T08:52:39;20.70;99.90
20041;DHT22;10181;48.072;9.884;2022-07-29T08:55:07;20.80;99.90
20041;DHT22;10181;48.072;9.884;2022-07-29T08:57:35;20.80;99.90
20041;DHT22;10181;48.072;9.884;2022-07-29T09:00:03;20.80;99.90
20041;DHT22;10181;48.072;9.884;2022-07-29T09:02:35;20.80;99.90
20041;DHT22;10181;48.072;9.884;2022-07-29T09:05:04;20.90;99.90
20041;DHT22;10181;48.072;9.884;2022-07-29T09:07:30;21.00;99.90
20041;DHT22;10181;48.072;9.884;2022-07-29T09:09:56;21.00;99.90
20041;DHT22;10181;48.072;9.884;2022-07-29T09:12:22;21.00;99.90
20041;DHT22;10181;48.072;9.884;2022-07-29T09:14:50;21.00;99.90
20041;DHT22;10181;48.072;9.884;2022-07-29T09:17:16;21.00;99.90
20041;DHT22;10181;48.072;9.884;2022-07-29T09:19:43;21.10;99.90
20041;DHT22;10181;48.072;9.884;2022-07-29T09:22:09;21.20;99.90
20041;DHT22;10181;48.072;9.884;2022-07-29T09:27:17;21.40;99.90
20041;DHT22;10181;48.072;9.884;2022-07-29T09:29:45;21.40;99.90
20041;DHT22;10181;48.072;9.884;2022-07-29T09:32:10;21.50;99.90
20041;DHT22;10181;48.072;9.884;2022-07-29T09:34:36;21.60;99.90
20041;DHT22;10181;48.072;9.884;2022-07-29T09:37:03;21.60;99.90
20041;DHT22;10181;48.072;9.884;2022-07-29T09:39:37;21.60;99.90
20041;DHT22;10181;48.072;9.884;2022-07-29T09:42:10;21.60;99.90
20041;DHT22;10181;48.072;9.884;2022-07-29T09:44:49;21.60;99.90
20041;DHT22;10181;48.072;9.884;2022-07-29T09:47:17;21.60;99.90
20041;DHT22;10181;48.072;9.884;2022-07-29T09:49:56;21.70;99.90
20041;DHT22;10181;48.072;9.884;2022-07-29T09:52:26;21.70;99.90
20041;DHT22;10181;48.072;9.884;2022-07-29T09:54:52;21.80;99.90
20041;DHT22;10181;48.072;9.884;2022-07-29T09:57:27;22.00;99.90
20041;DHT22;10181;48.072;9.884;2022-07-29T10:02:22;22.00;99.90
20041;DHT22;10181;48.072;9.884;2022-07-29T10:04:47;21.90;99.90
20041;DHT22;10181;48.072;9.884;2022-07-29T10:07:18;21.90;99.90
20041;DHT22;10181;48.072;9.884;2022-07-29T10:09:56;21.80;99.90
20041;DHT22;10181;48.072;9.884;2022-07-29T10:12:23;21.80;99.90
20041;DHT22;10181;48.072;9.884;2022-07-29T10:14:50;21.90;99.90
20041;DHT22;10181;48.072;9.884;2022-07-29T10:17:16;21.90;99.90
20041;DHT22;10181;48.072;9.884;2022-07-29T10:19:43;21.80;99.90
20041;DHT22;10181;48.072;9.884;2022-07-29T10:22:10;21.90;99.90
20041;DHT22;10181;48.072;9.884;2022-07-29T10:24:37;21.90;99.90
20041;DHT22;10181;48.072;9.884;2022-07-29T10:27:08;21.90;99.90
20041;DHT22;10181;48.072;9.884;2022-07-29T10:29:34;21.90;99.90
20041;DHT22;10181;48.072;9.884;2022-07-29T10:32:21;22.00;99.90
20041;DHT22;10181;48.072;9.884;2022-07-29T10:37:33;22.20;99.90
20041;DHT22;10181;48.072;9.884;2022-07-29T10:40:22;22.30;99.90
20041;DHT22;10181;48.072;9.884;2022-07-29T10:43:20;22.30;99.90
20041;DHT22;10181;48.072;9.884;2022-07-29T10:45:48;22.40;99.90
20041;DHT22;10181;48.072;9.884;2022-07-29T10:48:15;22.30;99.90
20041;DHT22;10181;48.072;9.884;2022-07-29T10:51:00;22.30;99.90
20041;DHT22;10181;48.072;9.884;2022-07-29T10:53:46;22.10;99.90
20041;DHT22;10181;48.072;9.884;2022-07-29T10:56:31;22.10;99.90
20041;DHT22;10181;48.072;9.884;2022-07-29T11:01:44;22.20;99.90
20041;DHT22;10181;48.072;9.884;2022-07-29T11:04:09;22.10;99.90
20041;DHT22;10181;48.072;9.884;2022-07-29T11:09:26;21.80;99.90
20041;DHT22;10181;48.072;9.884;2022-07-29T11:11:52;21.70;99.90
20041;DHT22;10181;48.072;9.884;2022-07-29T11:14:19;21.80;99.90
20041;DHT22;10181;48.072;9.884;2022-07-29T11:17:05;21.80;99.90
20041;DHT22;10181;48.072;9.884;2022-07-29T11:19:31;21.80;99.90
20041;DHT22;10181;48.072;9.884;2022-07-29T11:21:57;21.70;99.90
20041;DHT22;10181;48.072;9.884;2022-07-29T11:24:28;21.70;99.90
20041;DHT22;10181;48.072;9.884;2022-07-29T11:27:17;21.70;99.90
20041;DHT22;10181;48.072;9.884;2022-07-29T11:29:55;21.70;99.90
20041;DHT22;10181;48.072;9.884;2022-07-29T11:32:22;21.70;99.90
20041;DHT22;10181;48.072;9.884;2022-07-29T11:34:49;21.70;99.90
20041;DHT22;10181;48.072;9.884;2022-07-29T11:37:17;21.70;99.90
20041;DHT22;10181;48.072;9.884;2022-07-29T11:47:27;21.40;99.90
20041;DHT22;10181;48.072;9.884;2022-07-29T11:49:54;21.30;99.90
20041;DHT22;10181;48.072;9.884;2022-07-29T11:52:20;21.30;99.90
20041;DHT22;10181;48.072;9.884;2022-07-29T11:54:50;21.40;99.90
20041;DHT22;10181;48.072;9.884;2022-07-29T11:57:19;21.40;99.90
20041;DHT22;10181;48.072;9.884;2022-07-29T11:59:47;21.30;99.90
20041;DHT22;10181;48.072;9.884;2022-07-29T12:02:14;21.30;99.90
20041;DHT22;10181;48.072;9.884;2022-07-29T12:04:51;21.30;99.90
20041;DHT22;10181;48.072;9.884;2022-07-29T12:07:17;21.40;99.90
20041;DHT22;10181;48.072;9.884;2022-07-29T12:09:51;21.40;99.90
20041;DHT22;10181;48.072;9.884;2022-07-29T12:12:17;21.40;99.90
20041;DHT22;10181;48.072;9.884;2022-07-29T12:14:43;21.30;99.90
20041;DHT22;10181;48.072;9.884;2022-07-29T12:17:32;21.20;99.90
20041;DHT22;10181;48.072;9.884;2022-07-29T12:20:00;21.20;99.90
20041;DHT22;10181;48.072;9.884;2022-07-29T12:22:36;21.20;99.90
20041;DHT22;10181;48.072;9.884;2022-07-29T12:25:08;21.10;99.90
20041;DHT22;10181;48.072;9.884;2022-07-29T12:27:35;21.20;99.90
20041;DHT22;10181;48.072;9.884;2022-07-29T12:30:04;21.30;99.90
20041;DHT22;10181;48.072;9.884;2022-07-29T12:32:35;21.50;99.90
20041;DHT22;10181;48.072;9.884;2022-07-29T12:35:08;21.70;99.90
20041;DHT22;10181;48.072;9.884;2022-07-29T12:37:36;21.70;99.90
20041;DHT22;10181;48.072;9.884;2022-07-29T12:40:07;21.80;99.90
20041;DHT22;10181;48.072;9.884;2022-07-29T12:42:33;21.90;99.90
20041;DHT22;10181;48.072;9.884;2022-07-29T12:44:59;22.20;99.90
20041;DHT22;10181;48.072;9.884;2022-07-29T12:47:25;22.50;99.90
20041;DHT22;10181;48.072;9.884;2022-07-29T12:49:52;22.70;99.90
20041;DHT22;10181;48.072;9.884;2022-07-29T12:52:33;22.90;99.90
20041;DHT22;10181;48.072;9.884;2022-07-29T12:54:59;23.10;99.90
20041;DHT22;10181;48.072;9.884;2022-07-29T12:57:27;23.30;99.90
20041;DHT22;10181;48.072;9.884;2022-07-29T13:00:22;23.50;99.90
20041;DHT22;10181;48.072;9.884;2022-07-29T13:02:58;23.70;99.90
20041;DHT22;10181;48.072;9.884;2022-07-29T13:05:42;23.90;99.90
20041;DHT22;10181;48.072;9.884;2022-07-29T13:08:13;24.00;99.90
20041;DHT22;10181;48.072;9.884;2022-07-29T13:10:39;24.10;99.90
20041;DHT22;10181;48.072;9.884;2022-07-29T13:13:09;24.20;99.90
20041;DHT22;10181;48.072;9.884;2022-07-29T13:15:37;24.20;99.90
20041;DHT22;10181;48.072;9.884;2022-07-29T13:18:04;24.10;99.90
20041;DHT22;10181;48.072;9.884;2022-07-29T13:20:30;24.20;99.90
20041;DHT22;10181;48.072;9.884;2022-07-29T13:23:00;24.30;99.90
20041;DHT22;10181;48.072;9.884;2022-07-29T13:25:30;24.30;99.90
20041;DHT22;10181;48.072;9.884;2022-07-29T13:27:58;24.30;99.90
20041;DHT22;10181;48.072;9.884;2022-07-29T13:30:24;24.30;99.90
20041;DHT22;10181;48.072;9.884;2022-07-29T13:32:51;24.40;99.90
20041;DHT22;10181;48.072;9.884;2022-07-29T13:35:18;24.40;99.90
20041;DHT22;10181;48.072;9.884;2022-07-29T13:37:44;24.50;99.90
20041;DHT22;10181;48.072;9.884;2022-07-29T13:40:10;24.50;99.90
20041;DHT22;10181;48.072;9.884;2022-07-29T13:42:37;24.30;99.90
20041;DHT22;10181;48.072;9.884;2022-07-29T13:45:03;24.30;99.90
20041;DHT22;10181;48.072;9.884;2022-07-29T13:47:29;24.30;99.90
20041;DHT22;10181;48.072;9.884;2022-07-29T13:49:55;24.30;99.90
20041;DHT22;10181;48.072;9.884;2022-07-29T13:52:21;24.40;99.90
20041;DHT22;10181;48.072;9.884;2022-07-29T13:54:47;24.50;99.90
20041;DHT22;10181;48.072;9.884;2022-07-29T13:57:13;24.50;99.90
20041;DHT22;10181;48.072;9.884;2022-07-29T13:59:40;24.40;99.90
20041;DHT22;10181;48.072;9.884;2022-07-29T14:02:07;24.20;99.90
20041;DHT22;10181;48.072;9.884;2022-07-29T14:04:34;24.10;99.90
20041;DHT22;10181;48.072;9.884;2022-07-29T14:07:00;24.00;99.90
20041;DHT22;10181;48.072;9.884;2022-07-29T14:09:26;23.90;99.90
20041;DHT22;10181;48.072;9.884;2022-07-29T14:11:51;23.70;99.90
20041;DHT22;10181;48.072;9.884;2022-07-29T14:14:18;23.70;99.90
20041;DHT22;10181;48.072;9.884;2022-07-29T14:16:44;23.60;99.90
20041;DHT22;10181;48.072;9.884;2022-07-29T14:19:09;23.60;99.90
20041;DHT22;10181;48.072;9.884;2022-07-29T14:21:36;23.60;99.90
20041;DHT22;10181;48.072;9.884;2022-07-29T14:24:02;23.40;99.90
20041;DHT22;10181;48.072;9.884;2022-07-29T14:26:28;23.30;99.90
20041;DHT22;10181;48.072;9.884;2022-07-29T14:28:53;23.40;99.90
20041;DHT22;10181;48.072;9.884;2022-07-29T14:31:19;23.30;99.90
20041;DHT22;10181;48.072;9.884;2022-07-29T14:33:45;23.40;99.90
20041;DHT22;10181;48.072;9.884;2022-07-29T14:36:11;23.30;99.90
20041;DHT22;10181;48.072;9.884;2022-07-29T14:38:36;23.40;99.90
20041;DHT22;10181;48.072;9.884;2022-07-29T14:41:06;23.30;99.90
20041;DHT22;10181;48.072;9.884;2022-07-29T14:43:32;23.20;99.90
20041;DHT22;10181;48.072;9.884;2022-07-29T14:45:57;23.20;99.90
20041;DHT22;10181;48.072;9.884;2022-07-29T14:48:23;23.20;99.90
20041;DHT22;10181;48.072;9.884;2022-07-29T14:50:48;23.20;99.90
20041;DHT22;10181;48.072;9.884;2022-07-29T14:53:14;23.10;99.90
20041;DHT22;10181;48.072;9.884;2022-07-29T14:55:40;23.10;99.90
20041;DHT22;10181;48.072;9.884;2022-07-29T14:58:07;23.10;99.90
20041;DHT22;10181;48.072;9.884;2022-07-29T15:00:33;23.10;99.90
20041;DHT22;10181;48.072;9.884;2022-07-29T15:03:02;22.90;99.90
20041;DHT22;10181;48.072;9.884;2022-07-29T15:05:27;22.40;99.90
20041;DHT22;10181;48.072;9.884;2022-07-29T15:07:53;21.20;99.90
20041;DHT22;10181;48.072;9.884;2022-07-29T15:10:19;19.20;99.90
20041;DHT22;10181;48.072;9.884;2022-07-29T15:12:45;17.80;99.90
20041;DHT22;10181;48.072;9.884;2022-07-29T15:15:10;17.00;99.90
20041;DHT22;10181;48.072;9.884;2022-07-29T15:17:36;16.50;99.90
20041;DHT22;10181;48.072;9.884;2022-07-29T15:20:02;16.10;99.90
20041;DHT22;10181;48.072;9.884;2022-07-29T15:22:28;15.90;99.90
20041;DHT22;10181;48.072;9.884;2022-07-29T15:24:53;15.80;99.90
20041;DHT22;10181;48.072;9.884;2022-07-29T15:27:19;15.70;99.90
20041;DHT22;10181;48.072;9.884;2022-07-29T15:29:44;15.60;99.90
20041;DHT22;10181;48.072;9.884;2022-07-29T15:32:10;15.60;99.90
20041;DHT22;10181;48.072;9.884;2022-07-29T15:34:37;15.60;99.90
20041;DHT22;10181;48.072;9.884;2022-07-29T15:37:06;15.60;99.90
20041;DHT22;10181;48.072;9.884;2022-07-29T15:39:32;15.70;99.90
20041;DHT22;10181;48.072;9.884;2022-07-29T15:41:57;15.70;99.90
20041;DHT22;10181;48.072;9.884;2022-07-29T15:44:25;15.80;99.90
20041;DHT22;10181;48.072;9.884;2022-07-29T15:46:51;15.90;99.90
20041;DHT22;10181;48.072;9.884;2022-07-29T15:49:36;16.00;99.90
20041;DHT22;10181;48.072;9.884;2022-07-29T15:52:08;16.00;99.90
20041;DHT22;10181;48.072;9.884;2022-07-29T15:54:35;16.00;99.90
20041;DHT22;10181;48.072;9.884;2022-07-29T15:57:03;16.00;99.90
20041;DHT22;10181;48.072;9.884;2022-07-29T15:59:28;16.10;99.90
20041;DHT22;10181;48.072;9.884;2022-07-29T16:01:54;16.10;99.90
20041;DHT22;10181;48.072;9.884;2022-07-29T16:04:20;16.10;99.90
20041;DHT22;10181;48.072;9.884;2022-07-29T16:06:47;16.20;99.90
20041;DHT22;10181;48.072;9.884;2022-07-29T16:09:13;16.20;99.90
20041;DHT22;10181;48.072;9.884;2022-07-29T16:11:40;16.20;99.90